sensor_id;sensor_type;location;lat;lon;timestamp;temperature;humidity
27667;DHT22;15074;50.940;5.282;2023-02-28T00:02:43;1.10;99.90
27667;DHT22;15074;50.940;5.282;2023-02-28T00:05:12;1.00;99.90
27667;DHT22;15074;50.940;5.282;2023-02-28T00:07:39;0.90;99.90
27667;DHT22;15074;50.940;5.282;2023-02-28T00:10:06;1.00;99.90
27667;DHT22;15074;50.940;5.282;2023-02-28T00:12:34;1.00;99.90
27667;DHT22;15074;50.940;5.282;2023-02-28T00:15:01;1.00;99.90
27667;DHT22;15074;50.940;5.282;2023-02-28T00:21:08;0.90;99.90
27667;DHT22;15074;50.940;5.282;2023-02-28T00:23:34;0.90;99.90
27667;DHT22;15074;50.940;5.282;2023-02-28T00:25:59;0.90;99.90
27667;DHT22;15074;50.940;5.282;2023-02-28T00:35:27;0.70;99.90
27667;DHT22;15074;50.940;5.282;2023-02-28T00:38:12;0.80;99.90
27667;DHT22;15074;50.940;5.282;2023-02-28T00:40:37;0.60;99.90
27667;DHT22;15074;50.940;5.282;2023-02-28T00:43:03;0.60;99.90
27667;DHT22;15074;50.940;5.282;2023-02-28T00:59:24;0.60;99.90
27667;DHT22;15074;50.940;5.282;2023-02-28T01:01:52;0.60;99.90
27667;DHT22;15074;50.940;5.282;2023-02-28T01:04:17;0.60;99.90
27667;DHT22;15074;50.940;5.282;2023-02-28T01:06:43;0.70;99.90
27667;DHT22;15074;50.940;5.282;2023-02-28T01:12:52;0.60;99.90
27667;DHT22;15074;50.940;5.282;2023-02-28T01:15:18;0.60;99.90
27667;DHT22;15074;50.940;5.282;2023-02-28T01:17:43;0.60;99.90
27667;DHT22;15074;50.940;5.282;2023-02-28T02:04:32;0.00;99.90
27667;DHT22;15074;50.940;5.282;2023-02-28T02:07:00;0.00;99.90
27667;DHT22;15074;50.940;5.282;2023-02-28T02:09:26;0.00;99.90
27667;DHT22;15074;50.940;5.282;2023-02-28T02:43:14;-0.10;99.90
27667;DHT22;15074;50.940;5.282;2023-02-28T02:48:45;0.00;99.90
27667;DHT22;15074;50.940;5.282;2023-02-28T02:51:17;0.00;99.90
27667;DHT22;15074;50.940;5.282;2023-02-28T03:27:31;-0.30;99.90
27667;DHT22;15074;50.940;5.282;2023-02-28T03:33:50;-0.20;99.90
27667;DHT22;15074;50.940;5.282;2023-02-28T03:36:54;-0.30;99.90
27667;DHT22;15074;50.940;5.282;2023-02-28T03:53:37;-0.20;99.90
27667;DHT22;15074;50.940;5.282;2023-02-28T04:11:23;-0.10;99.90
27667;DHT22;15074;50.940;5.282;2023-02-28T04:13:55;-0.10;99.90
27667;DHT22;15074;50.940;5.282;2023-02-28T04:16:21;-0.20;99.90
27667;DHT22;15074;50.940;5.282;2023-02-28T04:43:22;-0.40;99.90
27667;DHT22;15074;50.940;5.282;2023-02-28T05:06:26;-0.60;99.90
27667;DHT22;15074;50.940;5.282;2023-02-28T05:26:22;-0.60;99.90
27667;DHT22;15074;50.940;5.282;2023-02-28T05:31:52;-0.90;99.90
27667;DHT22;15074;50.940;5.282;2023-02-28T05:34:18;-0.90;99.90
27667;DHT22;15074;50.940;5.282;2023-02-28T06:14:53;-1.20;99.90
27667;DHT22;15074;50.940;5.282;2023-02-28T06:17:18;-1.10;99.90
27667;DHT22;15074;50.940;5.282;2023-02-28T06:19:44;-1.20;99.90
27667;DHT22;15074;50.940;5.282;2023-02-28T06:22:14;-1.20;99.90
27667;DHT22;15074;50.940;5.282;2023-02-28T06:25:00;-1.20;99.90
27667;DHT22;15074;50.940;5.282;2023-02-28T06:27:25;-1.20;99.90
27667;DHT22;15074;50.940;5.282;2023-02-28T06:29:54;-1.10;99.90
27667;DHT22;15074;50.940;5.282;2023-02-28T06:35:51;-1.10;99.90
27667;DHT22;15074;50.940;5.282;2023-02-28T07:01:56;2.70;99.90
27667;DHT22;15074;50.940;5.282;2023-02-28T07:04:22;3.30;99.90
27667;DHT22;15074;50.940;5.282;2023-02-28T07:06:48;4.00;99.90
27667;DHT22;15074;50.940;5.282;2023-02-28T07:09:14;4.30;99.90
27667;DHT22;15074;50.940;5.282;2023-02-28T07:11:40;4.60;99.90
27667;DHT22;15074;50.940;5.282;2023-02-28T07:14:08;4.80;99.90
27667;DHT22;15074;50.940;5.282;2023-02-28T07:16:34;5.30;99.90
27667;DHT22;15074;50.940;5.282;2023-02-28T07:18:59;5.60;99.90
27667;DHT22;15074;50.940;5.282;2023-02-28T07:21:25;6.40;99.90
27667;DHT22;15074;50.940;5.282;2023-02-28T07:23:51;7.00;99.90
27667;DHT22;15074;50.940;5.282;2023-02-28T07:26:18;7.30;99.90
27667;DHT22;15074;50.940;5.282;2023-02-28T07:28:45;6.60;99.90
27667;DHT22;15074;50.940;5.282;2023-02-28T07:31:12;5.90;99.90
27667;DHT22;15074;50.940;5.282;2023-02-28T07:33:39;5.40;99.90
27667;DHT22;15074;50.940;5.282;2023-02-28T07:36:13;4.70;99.90
27667;DHT22;15074;50.940;5.282;2023-02-28T07:38:46;4.50;99.90
27667;DHT22;15074;50.940;5.282;2023-02-28T07:41:16;4.10;99.90
27667;DHT22;15074;50.940;5.282;2023-02-28T07:43:42;3.60;99.90
27667;DHT22;15074;50.940;5.282;2023-02-28T08:03:22;3.10;99.90
27667;DHT22;15074;50.940;5.282;2023-02-28T08:05:48;5.50;99.90
27667;DHT22;15074;50.940;5.282;2023-02-28T08:08:15;7.30;99.90
27667;DHT22;15074;50.940;5.282;2023-02-28T08:10:42;8.80;99.90
27667;DHT22;15074;50.940;5.282;2023-02-28T08:13:08;9.70;99.90
27667;DHT22;15074;50.940;5.282;2023-02-28T08:15:34;10.50;99.90
27667;DHT22;15074;50.940;5.282;2023-02-28T08:17:59;10.80;99.90
27667;DHT22;15074;50.940;5.282;2023-02-28T08:20:25;11.00;98.90
27667;DHT22;15074;50.940;5.282;2023-02-28T08:22:51;11.60;96.80
27667;DHT22;15074;50.940;5.282;2023-02-28T08:25:17;12.00;95.60
27667;DHT22;15074;50.940;5.282;2023-02-28T08:27:43;12.50;94.90
27667;DHT22;15074;50.940;5.282;2023-02-28T08:30:13;12.70;93.70
27667;DHT22;15074;50.940;5.282;2023-02-28T08:32:40;12.30;93.50
27667;DHT22;15074;50.940;5.282;2023-02-28T08:35:06;12.00;93.30
27667;DHT22;15074;50.940;5.282;2023-02-28T08:37:32;12.80;92.70
27667;DHT22;15074;50.940;5.282;2023-02-28T08:39:57;13.20;91.80
27667;DHT22;15074;50.940;5.282;2023-02-28T08:42:23;13.40;90.80
27667;DHT22;15074;50.940;5.282;2023-02-28T08:44:49;13.80;90.90
27667;DHT22;15074;50.940;5.282;2023-02-28T08:47:15;14.70;87.00
27667;DHT22;15074;50.940;5.282;2023-02-28T08:49:41;14.60;84.70
27667;DHT22;15074;50.940;5.282;2023-02-28T08:52:07;14.90;84.30
27667;DHT22;15074;50.940;5.282;2023-02-28T08:54:32;14.50;84.00
27667;DHT22;15074;50.940;5.282;2023-02-28T08:56:59;15.10;81.20
27667;DHT22;15074;50.940;5.282;2023-02-28T08:59:25;14.20;80.00
27667;DHT22;15074;50.940;5.282;2023-02-28T09:01:51;13.10;82.70
27667;DHT22;15074;50.940;5.282;2023-02-28T09:04:16;13.30;83.40
27667;DHT22;15074;50.940;5.282;2023-02-28T09:06:42;13.40;81.90
27667;DHT22;15074;50.940;5.282;2023-02-28T09:09:07;13.70;80.20
27667;DHT22;15074;50.940;5.282;2023-02-28T09:11:35;13.90;80.90
27667;DHT22;15074;50.940;5.282;2023-02-28T09:14:01;13.90;80.30
27667;DHT22;15074;50.940;5.282;2023-02-28T09:16:29;14.20;78.30
27667;DHT22;15074;50.940;5.282;2023-02-28T09:18:56;12.90;76.40
27667;DHT22;15074;50.940;5.282;2023-02-28T09:21:22;13.20;78.20
27667;DHT22;15074;50.940;5.282;2023-02-28T09:23:49;13.10;77.80
27667;DHT22;15074;50.940;5.282;2023-02-28T09:26:23;12.80;78.70
27667;DHT22;15074;50.940;5.282;2023-02-28T09:28:49;13.80;76.40
27667;DHT22;15074;50.940;5.282;2023-02-28T09:31:23;14.00;73.60
27667;DHT22;15074;50.940;5.282;2023-02-28T09:33:50;14.10;73.90
27667;DHT22;15074;50.940;5.282;2023-02-28T09:36:17;14.20;71.60
27667;DHT22;15074;50.940;5.282;2023-02-28T09:38:43;14.30;70.70
27667;DHT22;15074;50.940;5.282;2023-02-28T09:41:24;13.80;67.10
27667;DHT22;15074;50.940;5.282;2023-02-28T09:44:01;10.90;74.20
27667;DHT22;15074;50.940;5.282;2023-02-28T09:46:35;11.50;73.70
27667;DHT22;15074;50.940;5.282;2023-02-28T09:49:07;11.60;74.80
27667;DHT22;15074;50.940;5.282;2023-02-28T09:51:51;12.80;71.70
27667;DHT22;15074;50.940;5.282;2023-02-28T09:54:21;12.90;67.50
27667;DHT22;15074;50.940;5.282;2023-02-28T09:56:54;10.80;68.40
27667;DHT22;15074;50.940;5.282;2023-02-28T09:59:42;10.70;71.80
27667;DHT22;15074;50.940;5.282;2023-02-28T10:10:02;9.40;74.20
27667;DHT22;15074;50.940;5.282;2023-02-28T10:12:32;9.20;75.00
27667;DHT22;15074;50.940;5.282;2023-02-28T10:14:59;10.20;73.10
27667;DHT22;15074;50.940;5.282;2023-02-28T10:17:39;9.20;74.00
27667;DHT22;15074;50.940;5.282;2023-02-28T10:20:15;8.20;76.80
27667;DHT22;15074;50.940;5.282;2023-02-28T10:23:17;9.10;75.70
27667;DHT22;15074;50.940;5.282;2023-02-28T10:26:09;10.30;73.40
27667;DHT22;15074;50.940;5.282;2023-02-28T10:28:33;8.70;74.30
27667;DHT22;15074;50.940;5.282;2023-02-28T10:30:59;9.50;75.70
27667;DHT22;15074;50.940;5.282;2023-02-28T10:33:31;8.20;75.30
27667;DHT22;15074;50.940;5.282;2023-02-28T10:35:58;7.90;77.70
27667;DHT22;15074;50.940;5.282;2023-02-28T10:41:14;8.50;75.00
27667;DHT22;15074;50.940;5.282;2023-02-28T10:43:42;8.50;73.70
27667;DHT22;15074;50.940;5.282;2023-02-28T10:51:19;11.20;71.10
27667;DHT22;15074;50.940;5.282;2023-02-28T10:53:54;10.70;69.60
27667;DHT22;15074;50.940;5.282;2023-02-28T10:56:25;10.00;70.90
27667;DHT22;15074;50.940;5.282;2023-02-28T11:01:23;10.10;66.00
27667;DHT22;15074;50.940;5.282;2023-02-28T11:03:50;10.10;68.20
27667;DHT22;15074;50.940;5.282;2023-02-28T11:06:20;11.30;66.80
27667;DHT22;15074;50.940;5.282;2023-02-28T11:08:50;11.90;66.50
27667;DHT22;15074;50.940;5.282;2023-02-28T11:11:18;11.30;64.30
27667;DHT22;15074;50.940;5.282;2023-02-28T11:13:45;9.70;66.80
27667;DHT22;15074;50.940;5.282;2023-02-28T11:16:14;9.50;69.20
27667;DHT22;15074;50.940;5.282;2023-02-28T11:18:41;8.40;69.30
27667;DHT22;15074;50.940;5.282;2023-02-28T11:21:14;8.80;70.40
27667;DHT22;15074;50.940;5.282;2023-02-28T11:23:42;10.00;68.40
27667;DHT22;15074;50.940;5.282;2023-02-28T11:26:08;11.40;65.70
27667;DHT22;15074;50.940;5.282;2023-02-28T11:28:39;12.50;65.00
27667;DHT22;15074;50.940;5.282;2023-02-28T11:33:37;12.90;62.40
27667;DHT22;15074;50.940;5.282;2023-02-28T11:36:21;13.70;61.10
27667;DHT22;15074;50.940;5.282;2023-02-28T11:38:55;13.50;60.60
27667;DHT22;15074;50.940;5.282;2023-02-28T11:52:06;11.50;63.50
27667;DHT22;15074;50.940;5.282;2023-02-28T11:55:00;11.90;64.10
27667;DHT22;15074;50.940;5.282;2023-02-28T11:57:31;12.80;62.30
27667;DHT22;15074;50.940;5.282;2023-02-28T12:00:31;13.40;60.50
27667;DHT22;15074;50.940;5.282;2023-02-28T12:05:34;12.40;63.00
27667;DHT22;15074;50.940;5.282;2023-02-28T12:10:30;12.90;62.20
27667;DHT22;15074;50.940;5.282;2023-02-28T12:16:37;13.50;60.60
27667;DHT22;15074;50.940;5.282;2023-02-28T12:21:47;11.70;63.00
27667;DHT22;15074;50.940;5.282;2023-02-28T12:26:44;11.30;63.00
27667;DHT22;15074;50.940;5.282;2023-02-28T12:29:25;10.10;64.90
27667;DHT22;15074;50.940;5.282;2023-02-28T12:31:57;9.20;67.90
27667;DHT22;15074;50.940;5.282;2023-02-28T12:34:41;9.20;67.50
27667;DHT22;15074;50.940;5.282;2023-02-28T12:37:13;8.90;69.70
27667;DHT22;15074;50.940;5.282;2023-02-28T12:39:46;10.00;66.90
27667;DHT22;15074;50.940;5.282;2023-02-28T12:42:24;10.60;65.20
27667;DHT22;15074;50.940;5.282;2023-02-28T12:44:56;9.30;67.40
27667;DHT22;15074;50.940;5.282;2023-02-28T12:47:23;9.70;68.50
27667;DHT22;15074;50.940;5.282;2023-02-28T12:50:07;9.80;68.20
27667;DHT22;15074;50.940;5.282;2023-02-28T13:09:34;10.60;64.50
27667;DHT22;15074;50.940;5.282;2023-02-28T13:11:59;9.60;65.00
27667;DHT22;15074;50.940;5.282;2023-02-28T13:17:11;10.00;67.60
27667;DHT22;15074;50.940;5.282;2023-02-28T13:22:44;11.60;66.30
27667;DHT22;15074;50.940;5.282;2023-02-28T13:27:55;12.40;62.50
27667;DHT22;15074;50.940;5.282;2023-02-28T13:44:09;12.50;65.20
27667;DHT22;15074;50.940;5.282;2023-02-28T14:06:25;8.60;72.90
27667;DHT22;15074;50.940;5.282;2023-02-28T14:13:59;8.10;72.00
27667;DHT22;15074;50.940;5.282;2023-02-28T14:16:48;7.70;75.00
27667;DHT22;15074;50.940;5.282;2023-02-28T14:19:14;7.60;76.70
27667;DHT22;15074;50.940;5.282;2023-02-28T14:35:20;7.90;78.30
27667;DHT22;15074;50.940;5.282;2023-02-28T14:37:49;8.40;77.30
27667;DHT22;15074;50.940;5.282;2023-02-28T14:40:29;9.00;75.70
27667;DHT22;15074;50.940;5.282;2023-02-28T14:42:57;9.00;75.00
27667;DHT22;15074;50.940;5.282;2023-02-28T14:45:29;9.30;74.10
27667;DHT22;15074;50.940;5.282;2023-02-28T14:47:57;8.80;74.70
27667;DHT22;15074;50.940;5.282;2023-02-28T14:50:25;7.90;76.10
27667;DHT22;15074;50.940;5.282;2023-02-28T14:52:59;8.00;76.90
27667;DHT22;15074;50.940;5.282;2023-02-28T14:55:31;8.40;76.80
27667;DHT22;15074;50.940;5.282;2023-02-28T14:58:01;8.90;75.90
27667;DHT22;15074;50.940;5.282;2023-02-28T15:00:37;8.70;75.80
27667;DHT22;15074;50.940;5.282;2023-02-28T15:05:59;7.10;80.20
27667;DHT22;15074;50.940;5.282;2023-02-28T15:08:26;7.20;81.50
27667;DHT22;15074;50.940;5.282;2023-02-28T15:11:15;7.50;79.70
27667;DHT22;15074;50.940;5.282;2023-02-28T15:13:47;7.60;78.70
27667;DHT22;15074;50.940;5.282;2023-02-28T15:16:17;7.60;79.60
27667;DHT22;15074;50.940;5.282;2023-02-28T15:18:58;7.50;79.50
27667;DHT22;15074;50.940;5.282;2023-02-28T15:23:56;7.50;79.60
27667;DHT22;15074;50.940;5.282;2023-02-28T15:26:25;7.30;79.30
27667;DHT22;15074;50.940;5.282;2023-02-28T15:29:04;7.00;80.60
27667;DHT22;15074;50.940;5.282;2023-02-28T15:31:58;7.20;81.40
27667;DHT22;15074;50.940;5.282;2023-02-28T15:34:37;7.00;81.40
27667;DHT22;15074;50.940;5.282;2023-02-28T15:37:27;6.50;82.70
27667;DHT22;15074;50.940;5.282;2023-02-28T15:39:56;6.30;84.70
27667;DHT22;15074;50.940;5.282;2023-02-28T15:42:28;6.60;83.60
27667;DHT22;15074;50.940;5.282;2023-02-28T15:44:54;6.80;83.70
27667;DHT22;15074;50.940;5.282;2023-02-28T15:47:26;6.90;83.10
27667;DHT22;15074;50.940;5.282;2023-02-28T15:50:02;6.70;82.20
27667;DHT22;15074;50.940;5.282;2023-02-28T15:52:41;6.60;83.10
27667;DHT22;15074;50.940;5.282;2023-02-28T15:55:26;6.70;82.60
27667;DHT22;15074;50.940;5.282;2023-02-28T15:57:54;6.80;82.80
27667;DHT22;15074;50.940;5.282;2023-02-28T16:00:23;6.50;83.70
27667;DHT22;15074;50.940;5.282;2023-02-28T16:02:50;6.50;83.70
27667;DHT22;15074;50.940;5.282;2023-02-28T16:05:30;6.60;84.30
27667;DHT22;15074;50.940;5.282;2023-02-28T16:08:15;6.60;84.30
27667;DHT22;15074;50.940;5.282;2023-02-28T16:10:41;6.60;84.20
27667;DHT22;15074;50.940;5.282;2023-02-28T16:13:08;6.60;84.00
27667;DHT22;15074;50.940;5.282;2023-02-28T16:15:38;6.50;84.80
27667;DHT22;15074;50.940;5.282;2023-02-28T16:18:11;6.40;85.60
27667;DHT22;15074;50.940;5.282;2023-02-28T16:20:37;6.30;86.10
27667;DHT22;15074;50.940;5.282;2023-02-28T16:23:03;6.30;85.60
27667;DHT22;15074;50.940;5.282;2023-02-28T16:25:35;6.30;85.90
27667;DHT22;15074;50.940;5.282;2023-02-28T16:28:02;6.20;86.30
27667;DHT22;15074;50.940;5.282;2023-02-28T16:30:29;6.20;86.20
27667;DHT22;15074;50.940;5.282;2023-02-28T16:32:58;6.10;87.50
27667;DHT22;15074;50.940;5.282;2023-02-28T16:35:24;5.90;86.80
27667;DHT22;15074;50.940;5.282;2023-02-28T16:37:52;5.80;87.70
27667;DHT22;15074;50.940;5.282;2023-02-28T16:40:23;5.90;87.20
27667;DHT22;15074;50.940;5.282;2023-02-28T16:42:52;5.90;87.10
27667;DHT22;15074;50.940;5.282;2023-02-28T16:45:26;5.90;87.40
27667;DHT22;15074;50.940;5.282;2023-02-28T16:47:52;5.80;88.50
27667;DHT22;15074;50.940;5.282;2023-02-28T16:50:29;5.80;88.10
27667;DHT22;15074;50.940;5.282;2023-02-28T16:52:55;5.70;88.10
27667;DHT22;15074;50.940;5.282;2023-02-28T16:55:23;5.70;88.20
27667;DHT22;15074;50.940;5.282;2023-02-28T16:57:58;5.70;88.60
27667;DHT22;15074;50.940;5.282;2023-02-28T17:00:25;5.60;89.20
27667;DHT22;15074;50.940;5.282;2023-02-28T17:02:52;5.60;89.60
27667;DHT22;15074;50.940;5.282;2023-02-28T17:05:18;5.60;90.10
27667;DHT22;15074;50.940;5.282;2023-02-28T17:07:44;5.60;90.10
27667;DHT22;15074;50.940;5.282;2023-02-28T17:10:25;5.50;90.50
27667;DHT22;15074;50.940;5.282;2023-02-28T17:12:51;5.50;91.00
27667;DHT22;15074;50.940;5.282;2023-02-28T17:15:19;5.50;91.40
27667;DHT22;15074;50.940;5.282;2023-02-28T17:17:46;5.50;91.50
27667;DHT22;15074;50.940;5.282;2023-02-28T17:20:18;5.40;91.60
27667;DHT22;15074;50.940;5.282;2023-02-28T17:29:27;5.30;92.20
27667;DHT22;15074;50.940;5.282;2023-02-28T17:31:53;5.30;92.30
27667;DHT22;15074;50.940;5.282;2023-02-28T17:34:19;5.10;92.80
27667;DHT22;15074;50.940;5.282;2023-02-28T17:37:11;5.20;93.10
27667;DHT22;15074;50.940;5.282;2023-02-28T17:39:36;5.20;93.20
27667;DHT22;15074;50.940;5.282;2023-02-28T17:42:02;5.10;93.50
27667;DHT22;15074;50.940;5.282;2023-02-28T17:44:28;5.10;93.50
27667;DHT22;15074;50.940;5.282;2023-02-28T17:46:54;5.10;93.70
27667;DHT22;15074;50.940;5.282;2023-02-28T17:49:21;5.00;94.10
27667;DHT22;15074;50.940;5.282;2023-02-28T17:51:48;5.00;94.20
27667;DHT22;15074;50.940;5.282;2023-02-28T17:54:14;5.00;94.20
27667;DHT22;15074;50.940;5.282;2023-02-28T17:56:40;4.90;94.50
27667;DHT22;15074;50.940;5.282;2023-02-28T17:59:08;4.80;94.70
27667;DHT22;15074;50.940;5.282;2023-02-28T18:01:34;4.80;94.90
27667;DHT22;15074;50.940;5.282;2023-02-28T18:04:00;4.70;95.20
27667;DHT22;15074;50.940;5.282;2023-02-28T18:06:31;4.60;95.60
27667;DHT22;15074;50.940;5.282;2023-02-28T18:08:59;4.50;96.10
27667;DHT22;15074;50.940;5.282;2023-02-28T18:11:24;4.40;96.00
27667;DHT22;15074;50.940;5.282;2023-02-28T18:13:53;4.40;96.40
27667;DHT22;15074;50.940;5.282;2023-02-28T18:16:19;4.30;96.60
27667;DHT22;15074;50.940;5.282;2023-02-28T18:18:46;4.20;97.20
27667;DHT22;15074;50.940;5.282;2023-02-28T18:21:14;4.10;97.30
27667;DHT22;15074;50.940;5.282;2023-02-28T18:23:40;4.10;97.50
27667;DHT22;15074;50.940;5.282;2023-02-28T18:30:04;3.90;98.20
27667;DHT22;15074;50.940;5.282;2023-02-28T18:32:51;3.70;98.90
27667;DHT22;15074;50.940;5.282;2023-02-28T18:35:17;3.60;99.40
27667;DHT22;15074;50.940;5.282;2023-02-28T18:38:07;3.60;99.80
27667;DHT22;15074;50.940;5.282;2023-02-28T18:40:34;3.60;99.90
27667;DHT22;15074;50.940;5.282;2023-02-28T18:52:36;3.50;99.90
27667;DHT22;15074;50.940;5.282;2023-02-28T18:55:03;3.50;99.90
27667;DHT22;15074;50.940;5.282;2023-02-28T18:57:29;3.40;99.90
27667;DHT22;15074;50.940;5.282;2023-02-28T18:59:55;3.50;99.90
27667;DHT22;15074;50.940;5.282;2023-02-28T19:02:21;3.40;99.90
27667;DHT22;15074;50.940;5.282;2023-02-28T19:04:48;3.50;99.90
27667;DHT22;15074;50.940;5.282;2023-02-28T19:07:14;3.50;99.90
27667;DHT22;15074;50.940;5.282;2023-02-28T19:09:40;3.40;99.90
27667;DHT22;15074;50.940;5.282;2023-02-28T19:12:05;3.40;99.90
27667;DHT22;15074;50.940;5.282;2023-02-28T19:14:31;3.30;99.90
27667;DHT22;15074;50.940;5.282;2023-02-28T19:20:02;3.20;99.90
27667;DHT22;15074;50.940;5.282;2023-02-28T19:22:28;3.20;99.90
27667;DHT22;15074;50.940;5.282;2023-02-28T19:28:20;3.30;99.90
27667;DHT22;15074;50.940;5.282;2023-02-28T19:30:47;3.20;99.90
27667;DHT22;15074;50.940;5.282;2023-02-28T19:33:17;3.20;99.90
27667;DHT22;15074;50.940;5.282;2023-02-28T19:35:43;3.20;99.90
27667;DHT22;15074;50.940;5.282;2023-02-28T19:38:09;3.20;99.90
27667;DHT22;15074;50.940;5.282;2023-02-28T19:40:35;3.10;99.90
27667;DHT22;15074;50.940;5.282;2023-02-28T19:43:05;3.10;99.90
27667;DHT22;15074;50.940;5.282;2023-02-28T19:45:33;3.00;99.90
27667;DHT22;15074;50.940;5.282;2023-02-28T19:47:59;3.10;99.90
27667;DHT22;15074;50.940;5.282;2023-02-28T19:50:24;2.90;99.90
27667;DHT22;15074;50.940;5.282;2023-02-28T19:52:50;2.90;99.90
27667;DHT22;15074;50.940;5.282;2023-02-28T19:55:49;2.90;99.90
27667;DHT22;15074;50.940;5.282;2023-02-28T20:01:20;2.90;99.90
27667;DHT22;15074;50.940;5.282;2023-02-28T20:03:48;3.00;99.90
27667;DHT22;15074;50.940;5.282;2023-02-28T20:06:24;2.90;99.90
27667;DHT22;15074;50.940;5.282;2023-02-28T20:09:09;2.90;99.90
27667;DHT22;15074;50.940;5.282;2023-02-28T20:11:35;2.90;99.90
27667;DHT22;15074;50.940;5.282;2023-02-28T20:14:01;2.80;99.90
27667;DHT22;15074;50.940;5.282;2023-02-28T20:16:30;2.90;99.90
27667;DHT22;15074;50.940;5.282;2023-02-28T20:22:53;2.80;99.90
27667;DHT22;15074;50.940;5.282;2023-02-28T20:35:47;2.80;99.90
27667;DHT22;15074;50.940;5.282;2023-02-28T20:45:17;2.30;99.90
27667;DHT22;15074;50.940;5.282;2023-02-28T20:51:12;2.40;99.90
27667;DHT22;15074;50.940;5.282;2023-02-28T20:57:20;2.40;99.90
27667;DHT22;15074;50.940;5.282;2023-02-28T21:02:51;2.30;99.90
27667;DHT22;15074;50.940;5.282;2023-02-28T21:05:17;2.20;99.90
27667;DHT22;15074;50.940;5.282;2023-02-28T21:07:46;2.20;99.90
27667;DHT22;15074;50.940;5.282;2023-02-28T21:13:15;2.20;99.90
27667;DHT22;15074;50.940;5.282;2023-02-28T21:15:41;2.30;99.90
27667;DHT22;15074;50.940;5.282;2023-02-28T21:18:07;2.10;99.90
27667;DHT22;15074;50.940;5.282;2023-02-28T21:24:12;2.10;99.90
27667;DHT22;15074;50.940;5.282;2023-02-28T21:51:04;1.50;99.90
27667;DHT22;15074;50.940;5.282;2023-02-28T22:00:46;1.50;99.90
27667;DHT22;15074;50.940;5.282;2023-02-28T22:03:12;1.50;99.90
27667;DHT22;15074;50.940;5.282;2023-02-28T22:05:38;1.50;99.90
27667;DHT22;15074;50.940;5.282;2023-02-28T22:08:36;1.50;99.90
27667;DHT22;15074;50.940;5.282;2023-02-28T22:11:01;1.50;99.90
27667;DHT22;15074;50.940;5.282;2023-02-28T22:13:28;1.50;99.90
27667;DHT22;15074;50.940;5.282;2023-02-28T22:15:53;1.50;99.90
27667;DHT22;15074;50.940;5.282;2023-02-28T22:18:19;1.50;99.90
27667;DHT22;15074;50.940;5.282;2023-02-28T22:27:22;1.40;99.90
27667;DHT22;15074;50.940;5.282;2023-02-28T22:30:09;1.40;99.90
27667;DHT22;15074;50.940;5.282;2023-02-28T22:32:35;1.40;99.90
27667;DHT22;15074;50.940;5.282;2023-02-28T22:35:01;1.40;99.90
27667;DHT22;15074;50.940;5.282;2023-02-28T22:44:12;1.40;99.90
27667;DHT22;15074;50.940;5.282;2023-02-28T22:46:38;1.40;99.90
27667;DHT22;15074;50.940;5.282;2023-02-28T22:49:04;1.50;99.90
27667;DHT22;15074;50.940;5.282;2023-02-28T22:54:18;1.50;99.90
27667;DHT22;15074;50.940;5.282;2023-02-28T22:57:02;1.50;99.90
27667;DHT22;15074;50.940;5.282;2023-02-28T22:59:28;1.40;99.90
27667;DHT22;15074;50.940;5.282;2023-02-28T23:01:53;1.30;99.90
27667;DHT22;15074;50.940;5.282;2023-02-28T23:04:19;1.30;99.90
27667;DHT22;15074;50.940;5.282;2023-02-28T23:07:05;1.30;99.90
27667;DHT22;15074;50.940;5.282;2023-02-28T23:09:30;1.30;99.90
27667;DHT22;15074;50.940;5.282;2023-02-28T23:11:56;1.20;99.90
27667;DHT22;15074;50.940;5.282;2023-02-28T23:14:22;1.30;99.90
27667;DHT22;15074;50.940;5.282;2023-02-28T23:16:52;1.30;99.90
27667;DHT22;15074;50.940;5.282;2023-02-28T23:19:24;1.30;99.90
27667;DHT22;15074;50.940;5.282;2023-02-28T23:21:52;1.30;99.90
27667;DHT22;15074;50.940;5.282;2023-02-28T23:24:21;1.30;99.90
27667;DHT22;15074;50.940;5.282;2023-02-28T23:26:49;1.40;99.90
27667;DHT22;15074;50.940;5.282;2023-02-28T23:29:16;1.40;99.90
27667;DHT22;15074;50.940;5.282;2023-02-28T23:31:43;1.30;99.90
27667;DHT22;15074;50.940;5.282;2023-02-28T23:34:11;1.30;99.90
27667;DHT22;15074;50.940;5.282;2023-02-28T23:36:38;1.30;99.90
27667;DHT22;15074;50.940;5.282;2023-02-28T23:42:09;1.20;99.90
27667;DHT22;15074;50.940;5.282;2023-02-28T23:44:34;1.20;99.90
27667;DHT22;15074;50.940;5.282;2023-02-28T23:50:30;1.10;99.90
27667;DHT22;15074;50.940;5.282;2023-02-28T23:52:56;1.10;99.90
27667;DHT22;15074;50.940;5.282;2023-02-28T23:55:22;1.10;99.90
